Wetterdaten: Woche 17.03.03 - 23.03.03 (KW12)
Datum Zeit Temperatur Luftfeuchte Luftdruck Regenmenge Wind Richtung Taupunkt Windchill
17.03.2003 00:00 0.1 C 70 % 1039.5 hPa 0.0 l/m 2.3 km/h (1 Bft) O-SO -4.7 C -0.5 C
17.03.2003 01:00 -1.1 C 78 % 1039.2 hPa 0.0 l/m 6.5 km/h (2 Bft) O-SO -4.5 C -3.4 C
17.03.2003 02:00 -1.8 C 77 % 1038.9 hPa 0.0 l/m 3.5 km/h (1 Bft) O-SO -5.2 C -2.8 C
17.03.2003 03:00 -2.4 C 82 % 1038.1 hPa 0.0 l/m 4.1 km/h (1 Bft) O-SO -5.0 C -3.8 C
17.03.2003 04:00 -2.8 C 84 % 1037.8 hPa 0.0 l/m 2.7 km/h (1 Bft) O-SO -5.2 C -3.9 C
17.03.2003 05:00 -3.9 C 87 % 1037.3 hPa 0.0 l/m 2.3 km/h (1 Bft) O-SO -5.7 C -4.4 C
17.03.2003 06:00 -4.7 C 94 % 1037.1 hPa 0.0 l/m 0.0 km/h (0 Bft) N -5.6 C -4.7 C
17.03.2003 07:00 -4.2 C 93 % 1037.1 hPa 0.0 l/m 0.3 km/h (0 Bft) O-SO -5.2 C -4.2 C
17.03.2003 08:00 -1.7 C 85 % 1037.1 hPa 0.0 l/m 0.0 km/h (0 Bft) N -3.9 C -1.7 C
17.03.2003 09:00 1.7 C 71 % 1036.4 hPa 0.0 l/m 0.2 km/h (0 Bft) N -2.9 C 1.7 C
17.03.2003 10:00 6.3 C 53 % 1036.0 hPa 0.0 l/m 13.0 km/h (3 Bft) SO -2.6 C 3.8 C
17.03.2003 11:00 8.4 C 47 % 1035.3 hPa 0.0 l/m 16.5 km/h (3 Bft) SO -2.4 C 5.9 C
17.03.2003 12:00 10.7 C 40 % 1034.4 hPa 0.0 l/m 12.1 km/h (2 Bft) SO -2.5 C 10.3 C
17.03.2003 13:00 12.1 C 35 % 1033.3 hPa 0.0 l/m 6.1 km/h (2 Bft) SO -2.9 C 12.1 C
17.03.2003 14:00 12.9 C 31 % 1032.3 hPa 0.0 l/m 10.0 km/h (2 Bft) SO -3.6 C 12.9 C
17.03.2003 15:00 13.3 C 31 % 1031.6 hPa 0.0 l/m 4.8 km/h (1 Bft) SO -3.7 C 13.3 C
17.03.2003 16:00 14.1 C 26 % 1030.7 hPa 0.0 l/m 4.0 km/h (1 Bft) O-SO -4.9 C 14.1 C
17.03.2003 17:00 13.4 C 25 % 1029.8 hPa 0.0 l/m 2.3 km/h (1 Bft) SO -6.1 C 13.4 C
17.03.2003 18:00 11.6 C 39 % 1029.8 hPa 0.0 l/m 1.6 km/h (1 Bft) W -2.1 C 11.6 C
17.03.2003 19:00 8.9 C 47 % 1029.8 hPa 0.0 l/m 0.1 km/h (0 Bft) N -1.9 C 8.9 C
17.03.2003 20:00 6.6 C 57 % 1029.8 hPa 0.0 l/m 3.1 km/h (1 Bft) O-SO -1.3 C 6.2 C
17.03.2003 21:00 4.7 C 69 % 1029.8 hPa 0.0 l/m 1.4 km/h (1 Bft) O-SO -0.6 C 4.5 C
17.03.2003 22:00 3.4 C 74 % 1029.8 hPa 0.0 l/m 0.5 km/h (0 Bft) O-SO -0.7 C 3.4 C
17.03.2003 23:00 2.1 C 76 % 1029.8 hPa 0.0 l/m 3.7 km/h (1 Bft) O -1.7 C 1.2 C
18.03.2003 00:00 1.6 C 78 % 1029.8 hPa 0.0 l/m 1.0 km/h (0 Bft) O-SO -1.9 C 1.3 C
18.03.2003 01:00 0.2 C 78 % 1029.8 hPa 0.0 l/m 0.6 km/h (0 Bft) O -3.2 C 0.2 C
18.03.2003 02:00 -0.7 C 87 % 1029.9 hPa 0.0 l/m 0.0 km/h (0 Bft) N -2.7 C -0.7 C
18.03.2003 03:00 -1.0 C 85 % 1029.8 hPa 0.0 l/m 0.0 km/h (0 Bft) N -3.2 C -1.0 C
18.03.2003 04:00 -1.7 C 84 % 1029.8 hPa 0.0 l/m 0.1 km/h (0 Bft) N -4.1 C -1.7 C
18.03.2003 05:00 -2.3 C 91 % 1029.8 hPa 0.0 l/m 0.3 km/h (0 Bft) NO -3.6 C -2.3 C
18.03.2003 06:00 -1.9 C 89 % 1029.8 hPa 0.0 l/m 3.4 km/h (1 Bft) O-SO -3.4 C -3.1 C
18.03.2003 07:00 -1.1 C 82 % 1030.8 hPa 0.0 l/m 2.7 km/h (1 Bft) O-SO -3.8 C -1.7 C
18.03.2003 08:00 1.6 C 71 % 1030.8 hPa 0.0 l/m 0.5 km/h (0 Bft) S-SO -3.1 C 1.6 C
18.03.2003 09:00 4.4 C 59 % 1030.8 hPa 0.0 l/m 2.7 km/h (1 Bft) SO -2.8 C 4.0 C
18.03.2003 10:00 7.0 C 52 % 1030.8 hPa 0.0 l/m 8.1 km/h (2 Bft) NO -2.2 C 5.7 C
18.03.2003 11:00 9.2 C 47 % 1030.8 hPa 0.0 l/m 13.8 km/h (3 Bft) O -1.6 C 7.3 C
18.03.2003 12:00 10.3 C 44 % 1030.8 hPa 0.0 l/m 14.8 km/h (3 Bft) O-SO -1.4 C 9.9 C
18.03.2003 13:00 11.7 C 38 % 1029.8 hPa 0.0 l/m 19.1 km/h (3 Bft) O-SO -2.0 C 11.7 C
18.03.2003 14:00 12.7 C 31 % 1029.8 hPa 0.0 l/m 16.1 km/h (3 Bft) O-SO -3.8 C 12.7 C
18.03.2003 15:00 12.9 C 30 % 1028.8 hPa 0.0 l/m 15.6 km/h (3 Bft) O-SO -4.2 C 12.9 C
18.03.2003 16:00 12.7 C 33 % 1028.8 hPa 0.0 l/m 19.3 km/h (3 Bft) O-SO -3.4 C 12.7 C
18.03.2003 17:00 11.6 C 38 % 1028.8 hPa 0.0 l/m 21.5 km/h (4 Bft) O-SO -2.4 C 11.6 C
18.03.2003 18:00 9.9 C 43 % 1029.2 hPa 0.0 l/m 3.2 km/h (1 Bft) O-SO -2.2 C 9.5 C
18.03.2003 19:00 8.5 C 45 % 1029.8 hPa 0.0 l/m 1.3 km/h (1 Bft) O-NO -2.7 C 8.5 C
18.03.2003 20:00 7.3 C 49 % 1030.4 hPa 0.0 l/m 2.8 km/h (1 Bft) NO -2.8 C 7.0 C
18.03.2003 21:00 6.7 C 52 % 1030.8 hPa 0.0 l/m 5.3 km/h (1 Bft) N-NO -2.4 C 5.9 C
18.03.2003 22:00 5.0 C 56 % 1030.8 hPa 0.0 l/m 1.7 km/h (1 Bft) O-NO -3.1 C 4.7 C
18.03.2003 23:00 2.1 C 73 % 1030.8 hPa 0.0 l/m 0.2 km/h (0 Bft) N -2.3 C 2.1 C
19.03.2003 00:00 1.5 C 74 % 1030.8 hPa 0.0 l/m 0.1 km/h (0 Bft) N -2.6 C 1.5 C
19.03.2003 01:00 0.5 C 75 % 1030.8 hPa 0.0 l/m 4.1 km/h (1 Bft) O-SO -3.5 C -0.8 C
19.03.2003 02:00 -0.4 C 80 % 1030.8 hPa 0.0 l/m 4.6 km/h (1 Bft) O-SO -3.5 C -2.0 C
19.03.2003 03:00 -1.5 C 87 % 1030.1 hPa 0.0 l/m 4.9 km/h (1 Bft) O-SO -3.4 C -3.2 C
19.03.2003 04:00 -2.2 C 92 % 1029.8 hPa 0.0 l/m 1.7 km/h (1 Bft) O-SO -3.3 C -2.5 C
19.03.2003 05:00 -2.9 C 93 % 1029.9 hPa 0.0 l/m 0.9 km/h (0 Bft) N -3.8 C -3.2 C
19.03.2003 06:00 -3.3 C 96 % 1030.8 hPa 0.0 l/m 0.0 km/h (0 Bft) N -3.9 C -3.3 C
19.03.2003 07:00 -2.8 C 95 % 1030.8 hPa 0.0 l/m 0.2 km/h (0 Bft) O-SO -3.6 C -2.8 C
19.03.2003 08:00 -0.8 C 87 % 1030.8 hPa 0.0 l/m 0.0 km/h (0 Bft) N -2.6 C -0.8 C
19.03.2003 09:00 1.6 C 77 % 1030.8 hPa 0.0 l/m 0.0 km/h (0 Bft) O -2.0 C 1.6 C
19.03.2003 10:00 5.2 C 62 % 1030.4 hPa 0.0 l/m 2.1 km/h (1 Bft) W-NW -1.6 C 4.8 C
19.03.2003 11:00 9.3 C 49 % 1029.8 hPa 0.0 l/m 5.9 km/h (2 Bft) SO -1.0 C 9.0 C
19.03.2003 12:00 12.0 C 44 % 1029.1 hPa 0.0 l/m 8.7 km/h (2 Bft) SO -0.0 C 12.0 C
19.03.2003 13:00 13.3 C 37 % 1028.5 hPa 0.0 l/m 8.7 km/h (2 Bft) SO -1.0 C 13.3 C
19.03.2003 14:00 14.0 C 34 % 1027.7 hPa 0.0 l/m 14.2 km/h (3 Bft) O-SO -1.6 C 14.0 C
19.03.2003 15:00 14.3 C 35 % 1026.8 hPa 0.0 l/m 18.7 km/h (3 Bft) SO -1.0 C 14.3 C
19.03.2003 16:00 14.1 C 33 % 1026.7 hPa 0.0 l/m 10.4 km/h (2 Bft) O-SO -1.7 C 14.1 C
19.03.2003 17:00 13.0 C 36 % 1026.7 hPa 0.0 l/m 2.0 km/h (1 Bft) S-SO -1.6 C 13.0 C
19.03.2003 18:00 10.7 C 43 % 1026.7 hPa 0.0 l/m 2.3 km/h (1 Bft) S-SO -1.3 C 10.6 C
19.03.2003 19:00 7.6 C 53 % 1026.9 hPa 0.0 l/m 7.6 km/h (2 Bft) SO -1.3 C 6.3 C
19.03.2003 20:00 5.0 C 65 % 1027.7 hPa 0.0 l/m 3.0 km/h (1 Bft) O-SO -1.0 C 4.6 C
19.03.2003 21:00 3.5 C 72 % 1027.7 hPa 0.0 l/m 3.0 km/h (1 Bft) SO -1.2 C 2.9 C
19.03.2003 22:00 2.4 C 78 % 1027.7 hPa 0.0 l/m 2.5 km/h (1 Bft) O-SO -1.1 C 2.0 C
19.03.2003 23:00 1.3 C 82 % 1027.7 hPa 0.0 l/m 2.9 km/h (1 Bft) O-SO -1.5 C 0.8 C
20.03.2003 00:00 0.7 C 85 % 1027.7 hPa 0.0 l/m 1.5 km/h (1 Bft) O-SO -1.6 C 0.5 C
20.03.2003 01:00 -0.3 C 88 % 1027.7 hPa 0.0 l/m 1.4 km/h (1 Bft) O-SO -2.1 C -0.3 C
20.03.2003 02:00 -1.0 C 90 % 1027.7 hPa 0.0 l/m 0.2 km/h (0 Bft) N -2.4 C -1.0 C
20.03.2003 03:00 -1.7 C 96 % 1027.7 hPa 0.0 l/m 0.6 km/h (0 Bft) O-SO -2.2 C -1.9 C
20.03.2003 04:00 -2.0 C 98 % 1027.7 hPa 0.0 l/m 0.8 km/h (0 Bft) O-SO -2.3 C -2.3 C
20.03.2003 05:00 -2.4 C 99 % 1027.7 hPa 0.0 l/m 0.8 km/h (0 Bft) N -2.6 C -2.7 C
20.03.2003 06:00 -3.0 C 99 % 1027.7 hPa 0.0 l/m 1.1 km/h (1 Bft) O-SO -3.1 C -3.5 C
20.03.2003 07:00 -2.2 C 97 % 1027.7 hPa 0.0 l/m 0.4 km/h (0 Bft) N -2.5 C -2.2 C
20.03.2003 08:00 0.2 C 90 % 1027.7 hPa 0.0 l/m 0.0 km/h (0 Bft) N -1.2 C 0.2 C
20.03.2003 09:00 2.9 C 76 % 1027.7 hPa 0.0 l/m 0.0 km/h (0 Bft) N -1.0 C 2.9 C
20.03.2003 10:00 7.0 C 57 % 1027.7 hPa 0.0 l/m 0.6 km/h (0 Bft) SO -0.9 C 7.0 C
20.03.2003 11:00 11.0 C 43 % 1027.3 hPa 0.0 l/m 1.4 km/h (1 Bft) SO -1.3 C 11.0 C
20.03.2003 12:00 13.4 C 38 % 1026.7 hPa 0.0 l/m 3.8 km/h (1 Bft) O-SO -0.6 C 13.4 C
20.03.2003 13:00 15.0 C 28 % 1025.9 hPa 0.0 l/m 3.9 km/h (1 Bft) SO -3.5 C 15.0 C
20.03.2003 14:00 15.7 C 27 % 1025.5 hPa 0.0 l/m 3.2 km/h (1 Bft) SO -3.0 C 15.7 C
20.03.2003 15:00 16.4 C 30 % 1024.6 hPa 0.0 l/m 8.7 km/h (2 Bft) W-NW -1.1 C 16.4 C
20.03.2003 16:00 15.9 C 32 % 1024.6 hPa 0.0 l/m 10.0 km/h (2 Bft) W-NW -0.6 C 15.9 C
20.03.2003 17:00 14.6 C 35 % 1024.6 hPa 0.0 l/m 11.8 km/h (2 Bft) W-NW -0.8 C 14.6 C
20.03.2003 18:00 12.2 C 34 % 1024.6 hPa 0.0 l/m 6.1 km/h (2 Bft) W-NW -3.3 C 12.2 C
20.03.2003 19:00 10.0 C 39 % 1025.4 hPa 0.0 l/m 0.1 km/h (0 Bft) N -3.4 C 10.0 C
20.03.2003 20:00 7.0 C 48 % 1025.6 hPa 0.0 l/m 2.0 km/h (1 Bft) O -3.3 C 6.7 C
20.03.2003 21:00 5.0 C 54 % 1026.3 hPa 0.0 l/m 2.2 km/h (1 Bft) O-SO -3.6 C 4.6 C
20.03.2003 22:00 3.0 C 65 % 1026.7 hPa 0.0 l/m 4.0 km/h (1 Bft) O-SO -3.1 C 1.9 C
20.03.2003 23:00 1.9 C 67 % 1026.7 hPa 0.0 l/m 2.5 km/h (1 Bft) O-SO -3.5 C 1.2 C
21.03.2003 00:00 0.5 C 76 % 1026.1 hPa 0.0 l/m 1.0 km/h (0 Bft) O-SO -3.2 C 0.5 C
21.03.2003 01:00 -0.1 C 82 % 1025.6 hPa 0.0 l/m 1.3 km/h (1 Bft) O-SO -2.9 C -0.3 C
21.03.2003 02:00 -0.9 C 82 % 1025.6 hPa 0.0 l/m 1.7 km/h (1 Bft) O-SO -3.5 C -0.9 C
21.03.2003 03:00 -1.3 C 83 % 1025.6 hPa 0.0 l/m 1.7 km/h (1 Bft) O-SO -3.7 C -1.7 C
21.03.2003 04:00 -1.2 C 79 % 1025.5 hPa 0.0 l/m 2.2 km/h (1 Bft) O-SO -4.3 C -1.9 C
21.03.2003 05:00 -1.7 C 81 % 1024.6 hPa 0.0 l/m 0.0 km/h (0 Bft) N -4.5 C -1.7 C
21.03.2003 06:00 -2.4 C 87 % 1024.6 hPa 0.0 l/m 0.1 km/h (0 Bft) N -4.3 C -2.4 C
21.03.2003 07:00 -1.0 C 81 % 1024.6 hPa 0.0 l/m 0.0 km/h (0 Bft) N -3.9 C -1.0 C
21.03.2003 08:00 1.0 C 69 % 1024.6 hPa 0.0 l/m 0.3 km/h (0 Bft) N -4.0 C 1.0 C
21.03.2003 09:00 3.3 C 58 % 1024.6 hPa 0.0 l/m 0.1 km/h (0 Bft) W-NW -4.2 C 3.3 C
21.03.2003 10:00 6.9 C 44 % 1024.6 hPa 0.0 l/m 2.9 km/h (1 Bft) SO -4.6 C 6.7 C
21.03.2003 11:00 11.0 C 41 % 1023.9 hPa 0.0 l/m 11.6 km/h (2 Bft) SO -1.8 C 11.0 C
21.03.2003 12:00 12.7 C 36 % 1023.3 hPa 0.0 l/m 18.7 km/h (3 Bft) O-SO -2.0 C 12.7 C
21.03.2003 13:00 13.6 C 29 % 1022.4 hPa 0.0 l/m 26.5 km/h (4 Bft) O-SO -3.9 C 13.6 C
21.03.2003 14:00 13.8 C 27 % 1021.5 hPa 0.0 l/m 19.4 km/h (3 Bft) SO -4.8 C 13.8 C
21.03.2003 15:00 13.8 C 28 % 1021.0 hPa 0.0 l/m 14.3 km/h (3 Bft) O-SO -4.4 C 13.8 C
21.03.2003 16:00 13.1 C 30 % 1020.5 hPa 0.0 l/m 11.6 km/h (2 Bft) O-SO -4.3 C 13.1 C
21.03.2003 17:00 12.3 C 34 % 1021.5 hPa 0.0 l/m 9.2 km/h (2 Bft) O-SO -3.1 C 12.3 C
21.03.2003 18:00 10.2 C 40 % 1021.5 hPa 0.0 l/m 3.2 km/h (1 Bft) O-NO -2.8 C 10.2 C
21.03.2003 19:00 8.5 C 48 % 1022.5 hPa 0.0 l/m 7.2 km/h (2 Bft) O -1.8 C 7.4 C
21.03.2003 20:00 7.3 C 52 % 1023.0 hPa 0.0 l/m 12.3 km/h (3 Bft) O -1.8 C 5.2 C
21.03.2003 21:00 6.0 C 61 % 1023.5 hPa 0.0 l/m 9.6 km/h (2 Bft) O-NO -1.0 C 4.2 C
21.03.2003 22:00 4.8 C 66 % 1023.5 hPa 0.0 l/m 7.5 km/h (2 Bft) O -1.1 C 3.2 C
21.03.2003 23:00 3.4 C 71 % 1023.5 hPa 0.0 l/m 5.3 km/h (1 Bft) SO -1.5 C 2.1 C
22.03.2003 00:00 2.4 C 75 % 1023.5 hPa 0.0 l/m 3.8 km/h (1 Bft) SO -1.6 C 1.4 C
22.03.2003 01:00 2.1 C 74 % 1023.5 hPa 0.0 l/m 2.0 km/h (1 Bft) O-SO -2.1 C 1.7 C
22.03.2003 02:00 1.6 C 76 % 1023.5 hPa 0.0 l/m 1.1 km/h (0 Bft) O -2.2 C 1.5 C
22.03.2003 03:00 0.9 C 77 % 1023.5 hPa 0.0 l/m 2.5 km/h (1 Bft) O -2.6 C 0.3 C
22.03.2003 04:00 0.3 C 75 % 1023.7 hPa 0.0 l/m 0.6 km/h (0 Bft) N -3.7 C 0.2 C
22.03.2003 05:00 -0.6 C 79 % 1024.6 hPa 0.0 l/m 2.0 km/h (1 Bft) O-SO -3.9 C -1.3 C
22.03.2003 06:00 -1.4 C 81 % 1025.3 hPa 0.0 l/m 0.4 km/h (0 Bft) SO -4.2 C -1.5 C
22.03.2003 07:00 -0.3 C 73 % 1025.6 hPa 0.0 l/m 5.1 km/h (1 Bft) O-SO -4.7 C -2.0 C
22.03.2003 08:00 1.7 C 60 % 1025.6 hPa 0.0 l/m 6.5 km/h (2 Bft) O-SO -5.2 C -0.1 C
22.03.2003 09:00 3.3 C 54 % 1026.4 hPa 0.0 l/m 6.2 km/h (2 Bft) O-SO -5.2 C 2.1 C
22.03.2003 10:00 5.4 C 48 % 1025.6 hPa 0.0 l/m 10.4 km/h (2 Bft) O-SO -4.7 C 3.3 C
22.03.2003 11:00 7.1 C 44 % 1025.6 hPa 0.0 l/m 3.9 km/h (1 Bft) O-SO -4.2 C 6.6 C
22.03.2003 12:00 9.6 C 45 % 1025.6 hPa 0.0 l/m 13.0 km/h (3 Bft) O-SO -1.8 C 8.1 C
22.03.2003 13:00 11.1 C 43 % 1024.9 hPa 0.0 l/m 16.5 km/h (3 Bft) O-SO -0.9 C 11.1 C
22.03.2003 14:00 11.9 C 42 % 1024.6 hPa 0.0 l/m 21.6 km/h (4 Bft) O-SO -0.6 C 11.9 C
22.03.2003 15:00 12.3 C 41 % 1024.6 hPa 0.0 l/m 22.0 km/h (4 Bft) O-SO -0.5 C 12.3 C
22.03.2003 16:00 12.1 C 41 % 1024.2 hPa 0.0 l/m 21.6 km/h (4 Bft) O-SO -0.7 C 12.1 C
22.03.2003 17:00 11.3 C 43 % 1024.4 hPa 0.0 l/m 19.9 km/h (4 Bft) O-SO -0.9 C 11.3 C
22.03.2003 18:00 9.5 C 46 % 1024.6 hPa 0.0 l/m 10.0 km/h (2 Bft) O-SO -1.6 C 8.8 C
22.03.2003 19:00 8.1 C 49 % 1024.7 hPa 0.0 l/m 1.3 km/h (1 Bft) NO -2.1 C 8.0 C
22.03.2003 20:00 7.0 C 48 % 1025.6 hPa 0.0 l/m 2.1 km/h (1 Bft) O-SO -3.4 C 6.7 C
22.03.2003 21:00 6.2 C 44 % 1025.6 hPa 0.0 l/m 2.8 km/h (1 Bft) O -5.1 C 5.8 C
22.03.2003 22:00 4.5 C 45 % 1026.1 hPa 0.0 l/m 0.7 km/h (0 Bft) NW -6.5 C 4.5 C
22.03.2003 23:00 3.9 C 43 % 1026.2 hPa 0.0 l/m 0.7 km/h (0 Bft) NO -7.7 C 3.9 C
23.03.2003 00:00 2.3 C 47 % 1026.7 hPa 0.0 l/m 2.6 km/h (1 Bft) O-SO -7.8 C 1.9 C
23.03.2003 01:00 0.7 C 55 % 1026.7 hPa 0.0 l/m 2.8 km/h (1 Bft) O -7.2 C -0.0 C
23.03.2003 02:00 -0.9 C 64 % 1026.7 hPa 0.0 l/m 5.1 km/h (1 Bft) O-SO -6.9 C -2.6 C
23.03.2003 03:00 -2.0 C 73 % 1027.2 hPa 0.0 l/m 0.3 km/h (0 Bft) O-SO -6.2 C -2.1 C
23.03.2003 04:00 -2.7 C 75 % 1027.7 hPa 0.0 l/m 0.3 km/h (0 Bft) O-SO -6.5 C -2.7 C
23.03.2003 05:00 -3.2 C 78 % 1027.8 hPa 0.0 l/m 0.7 km/h (0 Bft) O-SO -6.5 C -3.4 C
23.03.2003 06:00 -4.0 C 84 % 1028.8 hPa 0.0 l/m 0.0 km/h (0 Bft) N -6.2 C -4.0 C
23.03.2003 07:00 -2.4 C 77 % 1029.2 hPa 0.0 l/m 0.0 km/h (0 Bft) N -5.9 C -2.4 C
23.03.2003 08:00 -0.0 C 66 % 1029.8 hPa 0.0 l/m 0.6 km/h (0 Bft) N-NW -5.8 C -0.1 C
23.03.2003 09:00 2.8 C 46 % 1029.8 hPa 0.0 l/m 1.3 km/h (1 Bft) W-NW -7.8 C 2.5 C
23.03.2003 10:00 5.8 C 38 % 1029.8 hPa 0.0 l/m 2.3 km/h (1 Bft) W-NW -7.5 C 5.4 C
23.03.2003 11:00 8.0 C 35 % 1029.8 hPa 0.0 l/m 6.9 km/h (2 Bft) W-NW -6.4 C 6.9 C
23.03.2003 12:00 10.8 C 34 % 1028.9 hPa 0.0 l/m 4.2 km/h (1 Bft) W-NW -4.3 C 10.8 C
23.03.2003 13:00 12.9 C 36 % 1028.8 hPa 0.0 l/m 6.6 km/h (2 Bft) W-NW -1.9 C 12.9 C
23.03.2003 14:00 14.4 C 35 % 1027.8 hPa 0.0 l/m 6.3 km/h (2 Bft) W-NW -0.8 C 14.4 C
23.03.2003 15:00 15.3 C 36 % 1027.7 hPa 0.0 l/m 1.9 km/h (1 Bft) NW 0.2 C 15.3 C
23.03.2003 16:00 15.4 C 31 % 1027.7 hPa 0.0 l/m 0.2 km/h (0 Bft) N -1.7 C 15.4 C
23.03.2003 17:00 14.8 C 31 % 1027.7 hPa 0.0 l/m 3.5 km/h (1 Bft) O-SO -2.2 C 14.8 C
23.03.2003 18:00 12.4 C 39 % 1028.1 hPa 0.0 l/m 6.7 km/h (2 Bft) O-SO -1.2 C 12.4 C
23.03.2003 19:00 8.5 C 51 % 1028.8 hPa 0.0 l/m 0.8 km/h (0 Bft) O-SO -1.2 C 8.4 C
23.03.2003 20:00 5.9 C 63 % 1029.5 hPa 0.0 l/m 0.4 km/h (0 Bft) O-SO -0.7 C 5.9 C
23.03.2003 21:00 4.0 C 74 % 1029.8 hPa 0.0 l/m 1.1 km/h (0 Bft) O-SO -0.1 C 4.0 C
23.03.2003 22:00 3.0 C 79 % 1029.8 hPa 0.0 l/m 1.1 km/h (1 Bft) O-SO -0.3 C 2.8 C
23.03.2003 23:00 2.1 C 82 % 1030.4 hPa 0.0 l/m 2.4 km/h (1 Bft) O-SO -0.6 C 1.8 C
Min-Datum _ 17.03.03 17.03.03 21.03.03 - 17.03.03 - 22.03.03 17.03.03
_ Min-Zeit 06:53 16:29 15:31 - 00:05 - 23:27 05:25
Minimum _ -5.1 C 25 % 1020.4 hPa - 0.0 km/h (0 Bft) - -9.0 C -8.5 C
Max-Datum _ 20.03.03 20.03.03 17.03.03 17.03.03 22.03.03 - 19.03.03 20.03.03
_ Max-Zeit 15:33 05:25 00:05 00:05 17:14 - 12:13 15:33
Maximum _ 17.0 C 100 % 1040.2 hPa 0.0 l/m 36.0 km/h
O-SO (5 Bft)
- 1.2 C 17.0 C
Durchschnitt _ 5.2 C 60 % 1028.1 hPa #0.0 l/m 5.0 km/h (1 Bft) O-SO -3.0 C 4.8 C

Durchschnitt Minimum Temp.4.1 C
Durchschnitt Maximum Temp.6.3 C
© Kaiko 2003